sensor_id;sensor_type;location;lat;lon;timestamp;P1;durP1;ratioP1;P2;durP2;ratioP2
59972;SDS011;55298;-36.624;-64.282;2023-02-03T00:00:06;3.63;;;3.08;;
59972;SDS011;55298;-36.624;-64.282;2023-02-03T00:02:36;7.72;;;5.65;;
59972;SDS011;55298;-36.624;-64.282;2023-02-03T00:05:05;5.93;;;3.40;;
59972;SDS011;55298;-36.624;-64.282;2023-02-03T00:07:35;15.32;;;13.10;;
59972;SDS011;55298;-36.624;-64.282;2023-02-03T00:10:06;12.57;;;11.18;;
59972;SDS011;55298;-36.624;-64.282;2023-02-03T00:12:36;7.15;;;5.63;;
59972;SDS011;55298;-36.624;-64.282;2023-02-03T00:15:04;6.28;;;2.63;;
59972;SDS011;55298;-36.624;-64.282;2023-02-03T00:17:34;5.32;;;3.72;;
59972;SDS011;55298;-36.624;-64.282;2023-02-03T00:20:02;9.60;;;5.68;;
59972;SDS011;55298;-36.624;-64.282;2023-02-03T00:22:32;8.75;;;6.75;;
59972;SDS011;55298;-36.624;-64.282;2023-02-03T00:25:00;14.13;;;8.60;;
59972;SDS011;55298;-36.624;-64.282;2023-02-03T00:27:30;11.77;;;8.70;;
59972;SDS011;55298;-36.624;-64.282;2023-02-03T00:29:59;10.35;;;7.20;;
59972;SDS011;55298;-36.624;-64.282;2023-02-03T00:32:28;10.57;;;6.07;;
59972;SDS011;55298;-36.624;-64.282;2023-02-03T00:34:57;14.63;;;4.70;;
59972;SDS011;55298;-36.624;-64.282;2023-02-03T00:37:25;12.65;;;3.92;;
59972;SDS011;55298;-36.624;-64.282;2023-02-03T00:39:53;13.40;;;4.03;;
59972;SDS011;55298;-36.624;-64.282;2023-02-03T00:42:22;14.65;;;4.43;;
59972;SDS011;55298;-36.624;-64.282;2023-02-03T00:44:49;15.38;;;4.80;;
59972;SDS011;55298;-36.624;-64.282;2023-02-03T00:47:18;15.32;;;6.15;;
59972;SDS011;55298;-36.624;-64.282;2023-02-03T00:49:45;13.70;;;6.82;;
59972;SDS011;55298;-36.624;-64.282;2023-02-03T00:52:15;17.30;;;8.10;;
59972;SDS011;55298;-36.624;-64.282;2023-02-03T00:54:42;19.80;;;8.70;;
59972;SDS011;55298;-36.624;-64.282;2023-02-03T00:57:12;22.33;;;10.30;;
59972;SDS011;55298;-36.624;-64.282;2023-02-03T00:59:40;21.13;;;8.95;;
59972;SDS011;55298;-36.624;-64.282;2023-02-03T01:02:09;25.00;;;8.90;;
59972;SDS011;55298;-36.624;-64.282;2023-02-03T01:04:37;28.35;;;9.30;;
59972;SDS011;55298;-36.624;-64.282;2023-02-03T01:07:05;39.20;;;10.25;;
59972;SDS011;55298;-36.624;-64.282;2023-02-03T01:09:33;30.88;;;9.45;;
59972;SDS011;55298;-36.624;-64.282;2023-02-03T01:12:03;26.75;;;10.43;;
59972;SDS011;55298;-36.624;-64.282;2023-02-03T01:14:31;35.25;;;11.82;;
59972;SDS011;55298;-36.624;-64.282;2023-02-03T01:17:00;34.38;;;16.08;;
59972;SDS011;55298;-36.624;-64.282;2023-02-03T01:19:28;24.88;;;10.68;;
59972;SDS011;55298;-36.624;-64.282;2023-02-03T01:21:59;34.42;;;15.15;;
59972;SDS011;55298;-36.624;-64.282;2023-02-03T01:24:28;22.13;;;13.20;;
59972;SDS011;55298;-36.624;-64.282;2023-02-03T01:26:57;29.15;;;13.68;;
59972;SDS011;55298;-36.624;-64.282;2023-02-03T01:29:25;24.33;;;16.20;;
59972;SDS011;55298;-36.624;-64.282;2023-02-03T01:31:53;32.30;;;17.85;;
59972;SDS011;55298;-36.624;-64.282;2023-02-03T01:34:21;40.20;;;15.18;;
59972;SDS011;55298;-36.624;-64.282;2023-02-03T01:36:49;37.97;;;13.88;;
59972;SDS011;55298;-36.624;-64.282;2023-02-03T01:39:17;31.52;;;12.48;;
59972;SDS011;55298;-36.624;-64.282;2023-02-03T01:41:45;23.23;;;9.05;;
59972;SDS011;55298;-36.624;-64.282;2023-02-03T01:47:01;35.42;;;22.90;;
59972;SDS011;55298;-36.624;-64.282;2023-02-03T01:49:31;38.72;;;24.00;;
59972;SDS011;55298;-36.624;-64.282;2023-02-03T01:54:32;27.02;;;16.88;;
59972;SDS011;55298;-36.624;-64.282;2023-02-03T01:57:10;19.85;;;12.93;;
59972;SDS011;55298;-36.624;-64.282;2023-02-03T01:59:42;18.10;;;11.73;;
59972;SDS011;55298;-36.624;-64.282;2023-02-03T02:02:12;16.90;;;11.45;;
59972;SDS011;55298;-36.624;-64.282;2023-02-03T02:04:46;29.45;;;19.92;;
59972;SDS011;55298;-36.624;-64.282;2023-02-03T02:07:26;20.40;;;12.77;;
59972;SDS011;55298;-36.624;-64.282;2023-02-03T02:09:55;10.63;;;7.25;;
59972;SDS011;55298;-36.624;-64.282;2023-02-03T02:12:23;17.20;;;10.65;;
59972;SDS011;55298;-36.624;-64.282;2023-02-03T02:14:51;15.23;;;9.85;;
59972;SDS011;55298;-36.624;-64.282;2023-02-03T02:20:26;15.20;;;9.35;;
59972;SDS011;55298;-36.624;-64.282;2023-02-03T02:25:52;11.80;;;7.55;;
59972;SDS011;55298;-36.624;-64.282;2023-02-03T02:28:46;4.18;;;3.30;;
59972;SDS011;55298;-36.624;-64.282;2023-02-03T02:34:29;6.38;;;4.90;;
59972;SDS011;55298;-36.624;-64.282;2023-02-03T02:40:17;4.75;;;3.00;;
59972;SDS011;55298;-36.624;-64.282;2023-02-03T02:45:49;4.10;;;2.70;;
59972;SDS011;55298;-36.624;-64.282;2023-02-03T02:50:54;3.38;;;2.33;;
59972;SDS011;55298;-36.624;-64.282;2023-02-03T02:53:24;4.93;;;2.10;;
59972;SDS011;55298;-36.624;-64.282;2023-02-03T02:55:56;2.58;;;2.38;;
59972;SDS011;55298;-36.624;-64.282;2023-02-03T02:58:28;4.10;;;2.45;;
59972;SDS011;55298;-36.624;-64.282;2023-02-03T03:00:57;5.10;;;2.20;;
59972;SDS011;55298;-36.624;-64.282;2023-02-03T03:03:25;2.63;;;2.10;;
59972;SDS011;55298;-36.624;-64.282;2023-02-03T03:05:54;4.80;;;2.30;;
59972;SDS011;55298;-36.624;-64.282;2023-02-03T03:08:32;4.03;;;2.72;;
59972;SDS011;55298;-36.624;-64.282;2023-02-03T03:11:09;3.90;;;2.50;;
59972;SDS011;55298;-36.624;-64.282;2023-02-03T03:13:38;4.25;;;3.28;;
59972;SDS011;55298;-36.624;-64.282;2023-02-03T03:16:15;5.95;;;3.30;;
59972;SDS011;55298;-36.624;-64.282;2023-02-03T03:18:49;9.88;;;4.60;;
59972;SDS011;55298;-36.624;-64.282;2023-02-03T03:21:23;3.08;;;2.80;;
59972;SDS011;55298;-36.624;-64.282;2023-02-03T03:23:56;7.13;;;2.92;;
59972;SDS011;55298;-36.624;-64.282;2023-02-03T03:26:31;6.18;;;3.63;;
59972;SDS011;55298;-36.624;-64.282;2023-02-03T03:29:12;3.55;;;3.00;;
59972;SDS011;55298;-36.624;-64.282;2023-02-03T03:32:01;4.45;;;2.63;;
59972;SDS011;55298;-36.624;-64.282;2023-02-03T03:34:30;3.97;;;2.50;;
59972;SDS011;55298;-36.624;-64.282;2023-02-03T03:37:01;7.43;;;2.88;;
59972;SDS011;55298;-36.624;-64.282;2023-02-03T03:45:14;3.63;;;3.03;;
59972;SDS011;55298;-36.624;-64.282;2023-02-03T03:47:56;6.13;;;2.78;;
59972;SDS011;55298;-36.624;-64.282;2023-02-03T03:50:48;6.38;;;3.30;;
59972;SDS011;55298;-36.624;-64.282;2023-02-03T03:53:19;7.18;;;3.38;;
59972;SDS011;55298;-36.624;-64.282;2023-02-03T03:55:53;3.25;;;2.67;;
59972;SDS011;55298;-36.624;-64.282;2023-02-03T03:58:23;5.88;;;3.40;;
59972;SDS011;55298;-36.624;-64.282;2023-02-03T04:00:56;4.78;;;3.28;;
59972;SDS011;55298;-36.624;-64.282;2023-02-03T04:06:10;6.90;;;4.28;;
59972;SDS011;55298;-36.624;-64.282;2023-02-03T04:08:38;5.40;;;4.00;;
59972;SDS011;55298;-36.624;-64.282;2023-02-03T04:11:07;4.45;;;4.05;;
59972;SDS011;55298;-36.624;-64.282;2023-02-03T04:13:35;3.78;;;3.28;;
59972;SDS011;55298;-36.624;-64.282;2023-02-03T04:16:03;7.53;;;4.00;;
59972;SDS011;55298;-36.624;-64.282;2023-02-03T04:18:30;5.95;;;3.13;;
59972;SDS011;55298;-36.624;-64.282;2023-02-03T04:20:59;4.72;;;2.90;;
59972;SDS011;55298;-36.624;-64.282;2023-02-03T04:23:27;5.07;;;3.88;;
59972;SDS011;55298;-36.624;-64.282;2023-02-03T04:25:55;6.32;;;3.45;;
59972;SDS011;55298;-36.624;-64.282;2023-02-03T04:28:27;6.20;;;3.35;;
59972;SDS011;55298;-36.624;-64.282;2023-02-03T04:30:58;5.15;;;3.63;;
59972;SDS011;55298;-36.624;-64.282;2023-02-03T04:33:26;6.20;;;3.85;;
59972;SDS011;55298;-36.624;-64.282;2023-02-03T04:35:55;11.23;;;4.38;;
59972;SDS011;55298;-36.624;-64.282;2023-02-03T04:38:24;3.63;;;3.13;;
59972;SDS011;55298;-36.624;-64.282;2023-02-03T04:40:53;5.07;;;3.15;;
59972;SDS011;55298;-36.624;-64.282;2023-02-03T04:43:21;5.05;;;3.20;;
59972;SDS011;55298;-36.624;-64.282;2023-02-03T04:45:49;3.17;;;2.85;;
59972;SDS011;55298;-36.624;-64.282;2023-02-03T04:48:17;3.05;;;2.75;;
59972;SDS011;55298;-36.624;-64.282;2023-02-03T04:50:46;6.35;;;3.10;;
59972;SDS011;55298;-36.624;-64.282;2023-02-03T04:53:14;6.75;;;3.00;;
59972;SDS011;55298;-36.624;-64.282;2023-02-03T04:55:46;3.67;;;3.03;;
59972;SDS011;55298;-36.624;-64.282;2023-02-03T04:58:14;6.43;;;3.05;;
59972;SDS011;55298;-36.624;-64.282;2023-02-03T05:00:43;4.47;;;3.45;;
59972;SDS011;55298;-36.624;-64.282;2023-02-03T05:03:10;4.75;;;3.13;;
59972;SDS011;55298;-36.624;-64.282;2023-02-03T05:05:40;5.43;;;3.30;;
59972;SDS011;55298;-36.624;-64.282;2023-02-03T05:08:08;5.32;;;3.28;;
59972;SDS011;55298;-36.624;-64.282;2023-02-03T05:10:37;4.95;;;3.33;;
59972;SDS011;55298;-36.624;-64.282;2023-02-03T05:13:05;4.35;;;3.03;;
59972;SDS011;55298;-36.624;-64.282;2023-02-03T05:15:33;4.30;;;2.92;;
59972;SDS011;55298;-36.624;-64.282;2023-02-03T05:18:01;4.35;;;3.40;;
59972;SDS011;55298;-36.624;-64.282;2023-02-03T05:20:29;4.90;;;3.30;;
59972;SDS011;55298;-36.624;-64.282;2023-02-03T05:22:57;3.65;;;3.35;;
59972;SDS011;55298;-36.624;-64.282;2023-02-03T05:25:26;8.18;;;3.53;;
59972;SDS011;55298;-36.624;-64.282;2023-02-03T05:27:53;3.60;;;3.30;;
59972;SDS011;55298;-36.624;-64.282;2023-02-03T05:30:22;4.07;;;2.70;;
59972;SDS011;55298;-36.624;-64.282;2023-02-03T05:32:50;2.70;;;2.50;;
59972;SDS011;55298;-36.624;-64.282;2023-02-03T05:35:18;4.63;;;2.88;;
59972;SDS011;55298;-36.624;-64.282;2023-02-03T05:37:46;3.08;;;2.70;;
59972;SDS011;55298;-36.624;-64.282;2023-02-03T05:40:16;3.00;;;2.70;;
59972;SDS011;55298;-36.624;-64.282;2023-02-03T05:42:54;3.22;;;2.92;;
59972;SDS011;55298;-36.624;-64.282;2023-02-03T05:45:22;4.75;;;3.00;;
59972;SDS011;55298;-36.624;-64.282;2023-02-03T05:47:50;3.95;;;3.05;;
59972;SDS011;55298;-36.624;-64.282;2023-02-03T05:50:18;14.48;;;3.63;;
59972;SDS011;55298;-36.624;-64.282;2023-02-03T05:52:47;4.60;;;3.13;;
59972;SDS011;55298;-36.624;-64.282;2023-02-03T05:55:17;3.50;;;3.20;;
59972;SDS011;55298;-36.624;-64.282;2023-02-03T05:57:44;6.57;;;3.40;;
59972;SDS011;55298;-36.624;-64.282;2023-02-03T06:00:12;5.25;;;3.40;;
59972;SDS011;55298;-36.624;-64.282;2023-02-03T06:02:40;3.70;;;3.40;;
59972;SDS011;55298;-36.624;-64.282;2023-02-03T06:05:08;5.80;;;4.00;;
59972;SDS011;55298;-36.624;-64.282;2023-02-03T06:07:36;6.53;;;3.90;;
59972;SDS011;55298;-36.624;-64.282;2023-02-03T06:10:04;6.35;;;4.30;;
59972;SDS011;55298;-36.624;-64.282;2023-02-03T06:12:33;9.98;;;4.35;;
59972;SDS011;55298;-36.624;-64.282;2023-02-03T06:15:02;7.07;;;4.80;;
59972;SDS011;55298;-36.624;-64.282;2023-02-03T06:17:32;6.30;;;4.20;;
59972;SDS011;55298;-36.624;-64.282;2023-02-03T06:20:02;6.68;;;4.75;;
59972;SDS011;55298;-36.624;-64.282;2023-02-03T06:22:32;10.15;;;5.97;;
59972;SDS011;55298;-36.624;-64.282;2023-02-03T06:25:02;4.97;;;4.25;;
59972;SDS011;55298;-36.624;-64.282;2023-02-03T06:27:30;5.25;;;4.45;;
59972;SDS011;55298;-36.624;-64.282;2023-02-03T06:29:58;5.22;;;4.75;;
59972;SDS011;55298;-36.624;-64.282;2023-02-03T06:32:27;5.40;;;4.60;;
59972;SDS011;55298;-36.624;-64.282;2023-02-03T06:34:56;7.18;;;4.78;;
59972;SDS011;55298;-36.624;-64.282;2023-02-03T06:37:25;4.60;;;4.18;;
59972;SDS011;55298;-36.624;-64.282;2023-02-03T06:39:53;5.43;;;4.18;;
59972;SDS011;55298;-36.624;-64.282;2023-02-03T06:42:22;6.32;;;4.57;;
59972;SDS011;55298;-36.624;-64.282;2023-02-03T06:44:50;4.50;;;4.18;;
59972;SDS011;55298;-36.624;-64.282;2023-02-03T06:47:19;4.35;;;3.67;;
59972;SDS011;55298;-36.624;-64.282;2023-02-03T06:49:47;5.18;;;4.50;;
59972;SDS011;55298;-36.624;-64.282;2023-02-03T06:52:17;5.35;;;4.85;;
59972;SDS011;55298;-36.624;-64.282;2023-02-03T06:54:44;5.90;;;4.55;;
59972;SDS011;55298;-36.624;-64.282;2023-02-03T06:57:13;5.45;;;4.80;;
59972;SDS011;55298;-36.624;-64.282;2023-02-03T06:59:41;5.68;;;4.93;;
59972;SDS011;55298;-36.624;-64.282;2023-02-03T07:02:10;4.53;;;4.13;;
59972;SDS011;55298;-36.624;-64.282;2023-02-03T07:04:38;5.07;;;3.70;;
59972;SDS011;55298;-36.624;-64.282;2023-02-03T07:07:08;7.07;;;4.30;;
59972;SDS011;55298;-36.624;-64.282;2023-02-03T07:09:37;6.80;;;4.97;;
59972;SDS011;55298;-36.624;-64.282;2023-02-03T07:12:06;4.95;;;4.55;;
59972;SDS011;55298;-36.624;-64.282;2023-02-03T07:14:34;5.75;;;5.18;;
59972;SDS011;55298;-36.624;-64.282;2023-02-03T07:17:04;5.57;;;5.07;;
59972;SDS011;55298;-36.624;-64.282;2023-02-03T07:19:33;5.63;;;5.10;;
59972;SDS011;55298;-36.624;-64.282;2023-02-03T07:22:02;9.10;;;5.65;;
59972;SDS011;55298;-36.624;-64.282;2023-02-03T07:24:30;4.85;;;4.35;;
59972;SDS011;55298;-36.624;-64.282;2023-02-03T07:26:59;7.13;;;5.03;;
59972;SDS011;55298;-36.624;-64.282;2023-02-03T07:29:27;5.45;;;4.95;;
59972;SDS011;55298;-36.624;-64.282;2023-02-03T07:31:55;6.28;;;5.55;;
59972;SDS011;55298;-36.624;-64.282;2023-02-03T07:34:23;6.20;;;5.20;;
59972;SDS011;55298;-36.624;-64.282;2023-02-03T07:36:51;5.15;;;4.63;;
59972;SDS011;55298;-36.624;-64.282;2023-02-03T07:39:18;6.47;;;4.80;;
59972;SDS011;55298;-36.624;-64.282;2023-02-03T07:41:47;4.90;;;4.55;;
59972;SDS011;55298;-36.624;-64.282;2023-02-03T07:44:15;6.38;;;4.45;;
59972;SDS011;55298;-36.624;-64.282;2023-02-03T07:46:43;7.30;;;4.40;;
59972;SDS011;55298;-36.624;-64.282;2023-02-03T07:49:12;4.65;;;4.20;;
59972;SDS011;55298;-36.624;-64.282;2023-02-03T07:51:40;5.47;;;4.95;;
59972;SDS011;55298;-36.624;-64.282;2023-02-03T07:54:08;5.72;;;5.20;;
59972;SDS011;55298;-36.624;-64.282;2023-02-03T07:56:36;5.60;;;5.10;;
59972;SDS011;55298;-36.624;-64.282;2023-02-03T07:59:04;4.90;;;4.50;;
59972;SDS011;55298;-36.624;-64.282;2023-02-03T08:01:33;7.10;;;4.32;;
59972;SDS011;55298;-36.624;-64.282;2023-02-03T08:04:00;5.35;;;3.90;;
59972;SDS011;55298;-36.624;-64.282;2023-02-03T08:06:30;4.15;;;3.75;;
59972;SDS011;55298;-36.624;-64.282;2023-02-03T08:08:58;4.70;;;4.28;;
59972;SDS011;55298;-36.624;-64.282;2023-02-03T08:11:26;3.92;;;3.53;;
59972;SDS011;55298;-36.624;-64.282;2023-02-03T08:13:53;4.00;;;3.60;;
59972;SDS011;55298;-36.624;-64.282;2023-02-03T08:16:22;3.58;;;3.28;;
59972;SDS011;55298;-36.624;-64.282;2023-02-03T08:18:50;5.47;;;4.80;;
59972;SDS011;55298;-36.624;-64.282;2023-02-03T08:21:21;5.80;;;4.68;;
59972;SDS011;55298;-36.624;-64.282;2023-02-03T08:23:49;4.78;;;4.47;;
59972;SDS011;55298;-36.624;-64.282;2023-02-03T08:26:17;4.20;;;3.80;;
59972;SDS011;55298;-36.624;-64.282;2023-02-03T08:28:47;4.63;;;4.00;;
59972;SDS011;55298;-36.624;-64.282;2023-02-03T08:31:15;4.07;;;3.78;;
59972;SDS011;55298;-36.624;-64.282;2023-02-03T08:33:43;4.57;;;3.67;;
59972;SDS011;55298;-36.624;-64.282;2023-02-03T08:36:12;5.30;;;4.10;;
59972;SDS011;55298;-36.624;-64.282;2023-02-03T08:38:40;5.03;;;3.75;;
59972;SDS011;55298;-36.624;-64.282;2023-02-03T08:41:09;4.85;;;3.90;;
59972;SDS011;55298;-36.624;-64.282;2023-02-03T08:43:38;5.18;;;3.90;;
59972;SDS011;55298;-36.624;-64.282;2023-02-03T08:46:08;5.57;;;5.15;;
59972;SDS011;55298;-36.624;-64.282;2023-02-03T08:48:37;4.35;;;3.95;;
59972;SDS011;55298;-36.624;-64.282;2023-02-03T08:51:10;4.65;;;4.20;;
59972;SDS011;55298;-36.624;-64.282;2023-02-03T08:53:39;4.18;;;3.88;;
59972;SDS011;55298;-36.624;-64.282;2023-02-03T08:56:09;7.13;;;5.72;;
59972;SDS011;55298;-36.624;-64.282;2023-02-03T08:58:37;5.35;;;4.72;;
59972;SDS011;55298;-36.624;-64.282;2023-02-03T09:01:08;5.30;;;4.80;;
59972;SDS011;55298;-36.624;-64.282;2023-02-03T09:03:38;7.67;;;5.20;;
59972;SDS011;55298;-36.624;-64.282;2023-02-03T09:06:07;6.07;;;5.32;;
59972;SDS011;55298;-36.624;-64.282;2023-02-03T09:08:42;5.47;;;4.93;;
59972;SDS011;55298;-36.624;-64.282;2023-02-03T09:11:12;5.38;;;4.90;;
59972;SDS011;55298;-36.624;-64.282;2023-02-03T09:13:41;5.57;;;5.10;;
59972;SDS011;55298;-36.624;-64.282;2023-02-03T09:16:11;5.63;;;5.10;;
59972;SDS011;55298;-36.624;-64.282;2023-02-03T09:18:44;5.68;;;4.80;;
59972;SDS011;55298;-36.624;-64.282;2023-02-03T09:21:14;5.80;;;5.25;;
59972;SDS011;55298;-36.624;-64.282;2023-02-03T09:23:43;5.40;;;5.00;;
59972;SDS011;55298;-36.624;-64.282;2023-02-03T09:26:12;5.15;;;4.72;;
59972;SDS011;55298;-36.624;-64.282;2023-02-03T09:28:40;8.27;;;5.30;;
59972;SDS011;55298;-36.624;-64.282;2023-02-03T09:31:09;5.15;;;4.65;;
59972;SDS011;55298;-36.624;-64.282;2023-02-03T09:33:39;5.78;;;5.00;;
59972;SDS011;55298;-36.624;-64.282;2023-02-03T09:36:07;5.18;;;4.63;;
59972;SDS011;55298;-36.624;-64.282;2023-02-03T09:38:35;5.03;;;4.60;;
59972;SDS011;55298;-36.624;-64.282;2023-02-03T09:46:39;5.20;;;4.43;;
59972;SDS011;55298;-36.624;-64.282;2023-02-03T09:49:13;7.50;;;5.03;;
59972;SDS011;55298;-36.624;-64.282;2023-02-03T09:54:38;8.50;;;5.40;;
59972;SDS011;55298;-36.624;-64.282;2023-02-03T09:57:20;8.52;;;5.10;;
59972;SDS011;55298;-36.624;-64.282;2023-02-03T09:59:56;6.25;;;4.82;;
59972;SDS011;55298;-36.624;-64.282;2023-02-03T10:02:35;6.65;;;4.80;;
59972;SDS011;55298;-36.624;-64.282;2023-02-03T10:05:32;6.07;;;4.82;;
59972;SDS011;55298;-36.624;-64.282;2023-02-03T10:17:03;6.63;;;5.95;;
59972;SDS011;55298;-36.624;-64.282;2023-02-03T10:22:46;5.05;;;4.55;;
59972;SDS011;55298;-36.624;-64.282;2023-02-03T10:25:19;6.03;;;4.93;;
59972;SDS011;55298;-36.624;-64.282;2023-02-03T10:28:02;5.93;;;4.22;;
59972;SDS011;55298;-36.624;-64.282;2023-02-03T10:30:40;11.18;;;9.95;;
59972;SDS011;55298;-36.624;-64.282;2023-02-03T10:33:15;6.03;;;4.43;;
59972;SDS011;55298;-36.624;-64.282;2023-02-03T10:35:51;6.15;;;4.30;;
59972;SDS011;55298;-36.624;-64.282;2023-02-03T10:38:42;5.38;;;4.78;;
59972;SDS011;55298;-36.624;-64.282;2023-02-03T10:41:21;4.78;;;3.90;;
59972;SDS011;55298;-36.624;-64.282;2023-02-03T10:43:51;5.85;;;4.05;;
59972;SDS011;55298;-36.624;-64.282;2023-02-03T10:46:25;4.07;;;3.67;;
59972;SDS011;55298;-36.624;-64.282;2023-02-03T10:48:55;5.15;;;4.03;;
59972;SDS011;55298;-36.624;-64.282;2023-02-03T10:51:24;8.30;;;5.53;;
59972;SDS011;55298;-36.624;-64.282;2023-02-03T10:53:57;6.50;;;4.13;;
59972;SDS011;55298;-36.624;-64.282;2023-02-03T10:56:30;11.18;;;5.47;;
59972;SDS011;55298;-36.624;-64.282;2023-02-03T10:59:02;6.50;;;5.13;;
59972;SDS011;55298;-36.624;-64.282;2023-02-03T11:04:23;6.43;;;4.32;;
59972;SDS011;55298;-36.624;-64.282;2023-02-03T11:06:54;7.53;;;4.63;;
59972;SDS011;55298;-36.624;-64.282;2023-02-03T11:12:35;6.55;;;4.32;;
59972;SDS011;55298;-36.624;-64.282;2023-02-03T11:15:04;11.38;;;6.15;;
59972;SDS011;55298;-36.624;-64.282;2023-02-03T11:17:34;9.57;;;5.95;;
59972;SDS011;55298;-36.624;-64.282;2023-02-03T11:20:12;7.85;;;5.38;;
59972;SDS011;55298;-36.624;-64.282;2023-02-03T11:22:43;11.52;;;5.50;;
59972;SDS011;55298;-36.624;-64.282;2023-02-03T11:25:16;8.85;;;5.55;;
59972;SDS011;55298;-36.624;-64.282;2023-02-03T11:28:02;6.53;;;4.60;;
59972;SDS011;55298;-36.624;-64.282;2023-02-03T11:30:36;5.80;;;4.35;;
59972;SDS011;55298;-36.624;-64.282;2023-02-03T11:35:54;8.13;;;4.28;;
59972;SDS011;55298;-36.624;-64.282;2023-02-03T11:38:28;12.00;;;5.10;;
59972;SDS011;55298;-36.624;-64.282;2023-02-03T11:41:02;7.22;;;4.78;;
59972;SDS011;55298;-36.624;-64.282;2023-02-03T11:43:30;6.00;;;4.45;;
59972;SDS011;55298;-36.624;-64.282;2023-02-03T11:46:00;10.43;;;5.18;;
59972;SDS011;55298;-36.624;-64.282;2023-02-03T11:48:35;8.50;;;4.72;;
59972;SDS011;55298;-36.624;-64.282;2023-02-03T11:51:19;6.03;;;3.58;;
59972;SDS011;55298;-36.624;-64.282;2023-02-03T11:54:01;6.68;;;4.00;;
59972;SDS011;55298;-36.624;-64.282;2023-02-03T11:57:00;5.18;;;3.50;;
59972;SDS011;55298;-36.624;-64.282;2023-02-03T11:59:35;6.50;;;3.33;;
59972;SDS011;55298;-36.624;-64.282;2023-02-03T12:11:04;3.40;;;3.10;;
59972;SDS011;55298;-36.624;-64.282;2023-02-03T12:19:33;4.82;;;2.45;;
59972;SDS011;55298;-36.624;-64.282;2023-02-03T12:24:58;2.78;;;2.53;;
59972;SDS011;55298;-36.624;-64.282;2023-02-03T12:27:50;4.63;;;2.70;;
59972;SDS011;55298;-36.624;-64.282;2023-02-03T12:30:42;4.07;;;2.30;;
59972;SDS011;55298;-36.624;-64.282;2023-02-03T12:38:55;3.38;;;2.45;;
59972;SDS011;55298;-36.624;-64.282;2023-02-03T12:41:36;2.80;;;2.20;;
59972;SDS011;55298;-36.624;-64.282;2023-02-03T12:44:15;3.03;;;2.50;;
59972;SDS011;55298;-36.624;-64.282;2023-02-03T12:49:52;2.88;;;2.17;;
59972;SDS011;55298;-36.624;-64.282;2023-02-03T12:55:19;4.47;;;2.53;;
59972;SDS011;55298;-36.624;-64.282;2023-02-03T13:01:34;3.45;;;2.15;;
59972;SDS011;55298;-36.624;-64.282;2023-02-03T13:07:07;2.53;;;1.92;;
59972;SDS011;55298;-36.624;-64.282;2023-02-03T13:12:33;5.13;;;2.00;;
59972;SDS011;55298;-36.624;-64.282;2023-02-03T13:18:12;4.80;;;3.30;;
59972;SDS011;55298;-36.624;-64.282;2023-02-03T13:20:54;3.65;;;2.10;;
59972;SDS011;55298;-36.624;-64.282;2023-02-03T13:23:24;2.72;;;1.95;;
59972;SDS011;55298;-36.624;-64.282;2023-02-03T13:31:45;3.25;;;2.80;;
59972;SDS011;55298;-36.624;-64.282;2023-02-03T13:37:36;1.77;;;1.50;;
59972;SDS011;55298;-36.624;-64.282;2023-02-03T13:40:27;1.73;;;1.63;;
59972;SDS011;55298;-36.624;-64.282;2023-02-03T13:43:12;3.92;;;2.13;;
59972;SDS011;55298;-36.624;-64.282;2023-02-03T13:46:07;3.97;;;1.90;;
59972;SDS011;55298;-36.624;-64.282;2023-02-03T13:48:51;2.75;;;1.80;;
59972;SDS011;55298;-36.624;-64.282;2023-02-03T13:51:24;2.50;;;2.00;;
59972;SDS011;55298;-36.624;-64.282;2023-02-03T13:54:03;3.15;;;2.88;;
59972;SDS011;55298;-36.624;-64.282;2023-02-03T13:59:38;2.88;;;1.90;;
59972;SDS011;55298;-36.624;-64.282;2023-02-03T14:07:57;7.15;;;2.60;;
59972;SDS011;55298;-36.624;-64.282;2023-02-03T14:10:47;3.25;;;1.77;;
59972;SDS011;55298;-36.624;-64.282;2023-02-03T14:13:43;5.40;;;1.90;;
59972;SDS011;55298;-36.624;-64.282;2023-02-03T14:16:13;4.05;;;2.00;;
59972;SDS011;55298;-36.624;-64.282;2023-02-03T14:18:50;2.10;;;1.90;;
59972;SDS011;55298;-36.624;-64.282;2023-02-03T14:21:22;3.33;;;2.00;;
59972;SDS011;55298;-36.624;-64.282;2023-02-03T14:23:56;5.40;;;2.15;;
59972;SDS011;55298;-36.624;-64.282;2023-02-03T14:26:36;3.85;;;2.00;;
59972;SDS011;55298;-36.624;-64.282;2023-02-03T14:32:20;1.45;;;1.30;;
59972;SDS011;55298;-36.624;-64.282;2023-02-03T14:34:49;6.15;;;2.30;;
59972;SDS011;55298;-36.624;-64.282;2023-02-03T14:37:26;3.72;;;2.28;;
59972;SDS011;55298;-36.624;-64.282;2023-02-03T14:40:13;9.07;;;7.05;;
59972;SDS011;55298;-36.624;-64.282;2023-02-03T14:43:08;4.95;;;2.13;;
59972;SDS011;55298;-36.624;-64.282;2023-02-03T14:48:48;4.70;;;2.05;;
59972;SDS011;55298;-36.624;-64.282;2023-02-03T14:54:41;2.28;;;1.83;;
59972;SDS011;55298;-36.624;-64.282;2023-02-03T15:00:24;6.03;;;4.82;;
59972;SDS011;55298;-36.624;-64.282;2023-02-03T15:05:52;1.52;;;1.27;;
59972;SDS011;55298;-36.624;-64.282;2023-02-03T15:08:30;4.68;;;1.65;;
59972;SDS011;55298;-36.624;-64.282;2023-02-03T15:16:44;2.83;;;2.63;;
59972;SDS011;55298;-36.624;-64.282;2023-02-03T15:19:17;3.77;;;1.80;;
59972;SDS011;55298;-36.624;-64.282;2023-02-03T15:21:49;2.53;;;2.10;;
59972;SDS011;55298;-36.624;-64.282;2023-02-03T15:24:18;2.08;;;1.30;;
59972;SDS011;55298;-36.624;-64.282;2023-02-03T15:26:52;1.55;;;1.10;;
59972;SDS011;55298;-36.624;-64.282;2023-02-03T15:29:25;2.97;;;1.00;;
59972;SDS011;55298;-36.624;-64.282;2023-02-03T15:32:11;1.58;;;1.00;;
59972;SDS011;55298;-36.624;-64.282;2023-02-03T15:34:50;2.53;;;1.40;;
59972;SDS011;55298;-36.624;-64.282;2023-02-03T15:37:29;0.82;;;0.82;;
59972;SDS011;55298;-36.624;-64.282;2023-02-03T15:40:15;2.63;;;1.40;;
59972;SDS011;55298;-36.624;-64.282;2023-02-03T15:42:57;2.22;;;0.98;;
59972;SDS011;55298;-36.624;-64.282;2023-02-03T15:45:32;1.92;;;1.35;;
59972;SDS011;55298;-36.624;-64.282;2023-02-03T15:48:26;1.23;;;1.10;;
59972;SDS011;55298;-36.624;-64.282;2023-02-03T15:51:06;4.97;;;1.77;;
59972;SDS011;55298;-36.624;-64.282;2023-02-03T15:56:35;2.45;;;1.27;;
59972;SDS011;55298;-36.624;-64.282;2023-02-03T16:02:13;1.35;;;1.13;;
59972;SDS011;55298;-36.624;-64.282;2023-02-03T16:04:46;1.45;;;1.13;;
59972;SDS011;55298;-36.624;-64.282;2023-02-03T16:07:17;2.53;;;1.10;;
59972;SDS011;55298;-36.624;-64.282;2023-02-03T16:09:51;1.60;;;1.50;;
59972;SDS011;55298;-36.624;-64.282;2023-02-03T16:12:24;1.10;;;1.10;;
59972;SDS011;55298;-36.624;-64.282;2023-02-03T16:14:56;1.38;;;1.10;;
59972;SDS011;55298;-36.624;-64.282;2023-02-03T16:17:29;1.38;;;1.27;;
59972;SDS011;55298;-36.624;-64.282;2023-02-03T16:28:30;4.65;;;1.30;;
59972;SDS011;55298;-36.624;-64.282;2023-02-03T16:31:15;1.10;;;1.00;;
59972;SDS011;55298;-36.624;-64.282;2023-02-03T16:37:11;2.70;;;1.30;;
59972;SDS011;55298;-36.624;-64.282;2023-02-03T16:39:59;2.80;;;1.20;;
59972;SDS011;55298;-36.624;-64.282;2023-02-03T16:42:40;1.48;;;1.30;;
59972;SDS011;55298;-36.624;-64.282;2023-02-03T16:45:18;1.75;;;1.30;;
59972;SDS011;55298;-36.624;-64.282;2023-02-03T16:48:08;1.55;;;0.90;;
59972;SDS011;55298;-36.624;-64.282;2023-02-03T16:51:11;2.00;;;1.30;;
59972;SDS011;55298;-36.624;-64.282;2023-02-03T16:53:50;1.00;;;1.00;;
59972;SDS011;55298;-36.624;-64.282;2023-02-03T16:56:18;1.50;;;1.25;;
59972;SDS011;55298;-36.624;-64.282;2023-02-03T16:58:48;1.40;;;1.10;;
59972;SDS011;55298;-36.624;-64.282;2023-02-03T17:01:16;1.55;;;1.20;;
59972;SDS011;55298;-36.624;-64.282;2023-02-03T17:03:44;5.00;;;1.60;;
59972;SDS011;55298;-36.624;-64.282;2023-02-03T17:06:12;2.97;;;2.08;;
59972;SDS011;55298;-36.624;-64.282;2023-02-03T17:08:40;3.35;;;1.10;;
59972;SDS011;55298;-36.624;-64.282;2023-02-03T17:11:14;2.22;;;1.02;;
59972;SDS011;55298;-36.624;-64.282;2023-02-03T17:13:45;2.20;;;1.42;;